sensor_id;sensor_type;location;lat;lon;timestamp;temperature;humidity
20759;DHT22;10539;53.686;9.158;2023-04-06T00:01:07;5.90;99.90
20759;DHT22;10539;53.686;9.158;2023-04-06T00:03:34;5.90;99.90
20759;DHT22;10539;53.686;9.158;2023-04-06T00:05:59;5.90;99.90
20759;DHT22;10539;53.686;9.158;2023-04-06T00:08:26;5.90;99.90
20759;DHT22;10539;53.686;9.158;2023-04-06T00:10:52;5.80;99.90
20759;DHT22;10539;53.686;9.158;2023-04-06T00:13:18;5.80;99.90
20759;DHT22;10539;53.686;9.158;2023-04-06T00:15:44;5.80;99.90
20759;DHT22;10539;53.686;9.158;2023-04-06T00:18:10;5.70;99.90
20759;DHT22;10539;53.686;9.158;2023-04-06T00:20:36;5.70;99.90
20759;DHT22;10539;53.686;9.158;2023-04-06T00:23:01;5.60;99.90
20759;DHT22;10539;53.686;9.158;2023-04-06T00:25:28;5.60;99.90
20759;DHT22;10539;53.686;9.158;2023-04-06T00:27:53;5.60;99.90
20759;DHT22;10539;53.686;9.158;2023-04-06T00:30:19;5.60;99.90
20759;DHT22;10539;53.686;9.158;2023-04-06T00:32:45;5.60;99.90
20759;DHT22;10539;53.686;9.158;2023-04-06T00:35:11;5.60;99.90
20759;DHT22;10539;53.686;9.158;2023-04-06T00:37:37;5.60;99.90
20759;DHT22;10539;53.686;9.158;2023-04-06T00:40:03;5.50;99.90
20759;DHT22;10539;53.686;9.158;2023-04-06T00:42:29;5.50;99.90
20759;DHT22;10539;53.686;9.158;2023-04-06T00:44:57;5.40;99.90
20759;DHT22;10539;53.686;9.158;2023-04-06T00:47:23;5.40;99.90
20759;DHT22;10539;53.686;9.158;2023-04-06T00:49:52;5.40;99.90
20759;DHT22;10539;53.686;9.158;2023-04-06T00:52:18;5.30;99.90
20759;DHT22;10539;53.686;9.158;2023-04-06T00:54:43;5.30;99.90
20759;DHT22;10539;53.686;9.158;2023-04-06T00:57:11;5.30;99.90
20759;DHT22;10539;53.686;9.158;2023-04-06T00:59:38;5.30;99.90
20759;DHT22;10539;53.686;9.158;2023-04-06T01:02:04;5.30;99.90
20759;DHT22;10539;53.686;9.158;2023-04-06T01:04:30;5.30;99.90
20759;DHT22;10539;53.686;9.158;2023-04-06T01:06:56;5.30;99.90
20759;DHT22;10539;53.686;9.158;2023-04-06T01:09:22;5.30;99.90
20759;DHT22;10539;53.686;9.158;2023-04-06T01:11:47;5.30;99.90
20759;DHT22;10539;53.686;9.158;2023-04-06T01:14:14;5.30;99.90
20759;DHT22;10539;53.686;9.158;2023-04-06T01:16:41;5.30;99.90
20759;DHT22;10539;53.686;9.158;2023-04-06T01:19:11;5.30;99.90
20759;DHT22;10539;53.686;9.158;2023-04-06T01:21:38;5.30;99.90
20759;DHT22;10539;53.686;9.158;2023-04-06T01:24:04;5.30;99.90
20759;DHT22;10539;53.686;9.158;2023-04-06T01:26:31;5.30;99.90
20759;DHT22;10539;53.686;9.158;2023-04-06T01:28:57;5.20;99.90
20759;DHT22;10539;53.686;9.158;2023-04-06T01:31:23;5.20;99.90
20759;DHT22;10539;53.686;9.158;2023-04-06T01:33:49;5.20;99.90
20759;DHT22;10539;53.686;9.158;2023-04-06T01:36:15;5.10;99.90
20759;DHT22;10539;53.686;9.158;2023-04-06T01:38:41;5.10;99.90
20759;DHT22;10539;53.686;9.158;2023-04-06T01:41:07;5.10;99.90
20759;DHT22;10539;53.686;9.158;2023-04-06T01:43:33;5.20;99.90
20759;DHT22;10539;53.686;9.158;2023-04-06T01:45:59;5.20;99.90
20759;DHT22;10539;53.686;9.158;2023-04-06T01:48:26;5.10;99.90
20759;DHT22;10539;53.686;9.158;2023-04-06T01:50:53;5.10;99.90
20759;DHT22;10539;53.686;9.158;2023-04-06T01:53:20;5.10;99.90
20759;DHT22;10539;53.686;9.158;2023-04-06T01:55:46;5.10;99.90
20759;DHT22;10539;53.686;9.158;2023-04-06T01:58:13;5.10;99.90
20759;DHT22;10539;53.686;9.158;2023-04-06T02:00:39;5.10;99.90
20759;DHT22;10539;53.686;9.158;2023-04-06T02:03:05;5.10;99.90
20759;DHT22;10539;53.686;9.158;2023-04-06T02:05:32;5.10;99.90
20759;DHT22;10539;53.686;9.158;2023-04-06T02:08:07;5.10;99.90
20759;DHT22;10539;53.686;9.158;2023-04-06T02:10:33;5.10;99.90
20759;DHT22;10539;53.686;9.158;2023-04-06T02:13:00;5.00;99.90
20759;DHT22;10539;53.686;9.158;2023-04-06T02:15:26;5.00;99.90
20759;DHT22;10539;53.686;9.158;2023-04-06T02:17:53;5.00;99.90
20759;DHT22;10539;53.686;9.158;2023-04-06T02:20:19;5.00;99.90
20759;DHT22;10539;53.686;9.158;2023-04-06T02:22:45;4.90;99.90
20759;DHT22;10539;53.686;9.158;2023-04-06T02:25:10;4.90;99.90
20759;DHT22;10539;53.686;9.158;2023-04-06T02:27:37;4.90;99.90
20759;DHT22;10539;53.686;9.158;2023-04-06T02:30:03;4.90;99.90
20759;DHT22;10539;53.686;9.158;2023-04-06T02:32:29;4.90;99.90
20759;DHT22;10539;53.686;9.158;2023-04-06T02:34:55;4.80;99.90
20759;DHT22;10539;53.686;9.158;2023-04-06T02:37:21;4.80;99.90
20759;DHT22;10539;53.686;9.158;2023-04-06T02:39:48;4.70;99.90
20759;DHT22;10539;53.686;9.158;2023-04-06T02:42:14;4.70;99.90
20759;DHT22;10539;53.686;9.158;2023-04-06T02:44:42;4.70;99.90
20759;DHT22;10539;53.686;9.158;2023-04-06T02:47:07;4.70;99.90
20759;DHT22;10539;53.686;9.158;2023-04-06T02:49:33;4.60;99.90
20759;DHT22;10539;53.686;9.158;2023-04-06T02:51:59;4.60;99.90
20759;DHT22;10539;53.686;9.158;2023-04-06T02:54:25;4.60;99.90
20759;DHT22;10539;53.686;9.158;2023-04-06T02:56:51;4.60;99.90
20759;DHT22;10539;53.686;9.158;2023-04-06T02:59:17;4.60;99.90
20759;DHT22;10539;53.686;9.158;2023-04-06T03:01:43;4.60;99.90
20759;DHT22;10539;53.686;9.158;2023-04-06T03:04:09;4.50;99.90
20759;DHT22;10539;53.686;9.158;2023-04-06T03:06:34;4.50;99.90
20759;DHT22;10539;53.686;9.158;2023-04-06T03:09:00;4.50;99.90
20759;DHT22;10539;53.686;9.158;2023-04-06T03:11:26;4.40;99.90
20759;DHT22;10539;53.686;9.158;2023-04-06T03:13:52;4.40;99.90
20759;DHT22;10539;53.686;9.158;2023-04-06T03:16:18;4.40;99.90
20759;DHT22;10539;53.686;9.158;2023-04-06T03:18:44;4.40;99.90
20759;DHT22;10539;53.686;9.158;2023-04-06T03:21:13;4.40;99.90
20759;DHT22;10539;53.686;9.158;2023-04-06T03:23:42;4.40;99.90
20759;DHT22;10539;53.686;9.158;2023-04-06T03:26:08;4.40;99.90
20759;DHT22;10539;53.686;9.158;2023-04-06T03:28:35;4.40;99.90
20759;DHT22;10539;53.686;9.158;2023-04-06T03:31:01;4.40;99.90
20759;DHT22;10539;53.686;9.158;2023-04-06T03:33:27;4.40;99.90
20759;DHT22;10539;53.686;9.158;2023-04-06T03:35:53;4.40;99.90
20759;DHT22;10539;53.686;9.158;2023-04-06T03:38:19;4.40;99.90
20759;DHT22;10539;53.686;9.158;2023-04-06T03:40:45;4.40;99.90
20759;DHT22;10539;53.686;9.158;2023-04-06T03:43:11;4.40;99.90
20759;DHT22;10539;53.686;9.158;2023-04-06T03:45:37;4.30;99.90
20759;DHT22;10539;53.686;9.158;2023-04-06T03:48:04;4.30;99.90
20759;DHT22;10539;53.686;9.158;2023-04-06T03:50:30;4.20;99.90
20759;DHT22;10539;53.686;9.158;2023-04-06T03:52:56;4.20;99.90
20759;DHT22;10539;53.686;9.158;2023-04-06T03:55:22;4.20;99.90
20759;DHT22;10539;53.686;9.158;2023-04-06T03:57:47;4.20;99.90
20759;DHT22;10539;53.686;9.158;2023-04-06T04:00:13;4.10;99.90
20759;DHT22;10539;53.686;9.158;2023-04-06T04:02:40;4.10;99.90
20759;DHT22;10539;53.686;9.158;2023-04-06T04:05:06;4.10;99.90
20759;DHT22;10539;53.686;9.158;2023-04-06T04:07:32;4.10;99.90
20759;DHT22;10539;53.686;9.158;2023-04-06T04:09:58;4.00;99.90
20759;DHT22;10539;53.686;9.158;2023-04-06T04:12:23;4.00;99.90
20759;DHT22;10539;53.686;9.158;2023-04-06T04:14:49;3.90;99.90
20759;DHT22;10539;53.686;9.158;2023-04-06T04:17:15;3.90;99.90
20759;DHT22;10539;53.686;9.158;2023-04-06T04:19:40;3.90;99.90
20759;DHT22;10539;53.686;9.158;2023-04-06T04:22:06;3.90;99.90
20759;DHT22;10539;53.686;9.158;2023-04-06T04:24:32;3.90;99.90
20759;DHT22;10539;53.686;9.158;2023-04-06T04:26:58;3.80;99.90
20759;DHT22;10539;53.686;9.158;2023-04-06T04:29:26;3.80;99.90
20759;DHT22;10539;53.686;9.158;2023-04-06T04:31:52;3.70;99.90
20759;DHT22;10539;53.686;9.158;2023-04-06T04:34:18;3.70;99.90
20759;DHT22;10539;53.686;9.158;2023-04-06T04:36:49;3.60;99.90
20759;DHT22;10539;53.686;9.158;2023-04-06T04:39:15;3.60;99.90
20759;DHT22;10539;53.686;9.158;2023-04-06T04:41:41;3.60;99.90
20759;DHT22;10539;53.686;9.158;2023-04-06T04:44:07;3.60;99.90
20759;DHT22;10539;53.686;9.158;2023-04-06T04:46:32;3.50;99.90
20759;DHT22;10539;53.686;9.158;2023-04-06T04:48:58;3.40;99.90
20759;DHT22;10539;53.686;9.158;2023-04-06T04:51:24;3.40;99.90
20759;DHT22;10539;53.686;9.158;2023-04-06T04:53:50;3.40;99.90
20759;DHT22;10539;53.686;9.158;2023-04-06T04:56:16;3.40;99.90
20759;DHT22;10539;53.686;9.158;2023-04-06T04:58:42;3.40;99.90
20759;DHT22;10539;53.686;9.158;2023-04-06T05:01:08;3.40;99.90
20759;DHT22;10539;53.686;9.158;2023-04-06T05:03:34;3.40;99.90
20759;DHT22;10539;53.686;9.158;2023-04-06T05:06:01;3.40;99.90
20759;DHT22;10539;53.686;9.158;2023-04-06T05:08:27;3.30;99.90
20759;DHT22;10539;53.686;9.158;2023-04-06T05:10:52;3.30;99.90
20759;DHT22;10539;53.686;9.158;2023-04-06T05:13:18;3.40;99.90
20759;DHT22;10539;53.686;9.158;2023-04-06T05:15:45;3.40;99.90
20759;DHT22;10539;53.686;9.158;2023-04-06T05:18:12;3.40;99.90
20759;DHT22;10539;53.686;9.158;2023-04-06T05:20:38;3.40;99.90
20759;DHT22;10539;53.686;9.158;2023-04-06T05:23:04;3.40;99.90
20759;DHT22;10539;53.686;9.158;2023-04-06T05:25:30;3.40;99.90
20759;DHT22;10539;53.686;9.158;2023-04-06T05:27:57;3.40;99.90
20759;DHT22;10539;53.686;9.158;2023-04-06T05:30:23;3.40;99.90
20759;DHT22;10539;53.686;9.158;2023-04-06T05:32:50;3.50;99.90
20759;DHT22;10539;53.686;9.158;2023-04-06T05:35:16;3.60;99.90
20759;DHT22;10539;53.686;9.158;2023-04-06T05:37:42;3.60;99.90
20759;DHT22;10539;53.686;9.158;2023-04-06T05:40:09;3.60;99.90
20759;DHT22;10539;53.686;9.158;2023-04-06T05:42:42;3.70;99.90
20759;DHT22;10539;53.686;9.158;2023-04-06T05:45:11;3.70;99.90
20759;DHT22;10539;53.686;9.158;2023-04-06T05:47:42;3.70;99.90
20759;DHT22;10539;53.686;9.158;2023-04-06T05:50:10;3.70;99.90
20759;DHT22;10539;53.686;9.158;2023-04-06T05:52:36;3.70;99.90
20759;DHT22;10539;53.686;9.158;2023-04-06T05:55:02;3.70;99.90
20759;DHT22;10539;53.686;9.158;2023-04-06T05:57:29;3.80;99.90
20759;DHT22;10539;53.686;9.158;2023-04-06T05:59:55;3.80;99.90
20759;DHT22;10539;53.686;9.158;2023-04-06T06:02:21;3.80;99.90
20759;DHT22;10539;53.686;9.158;2023-04-06T06:04:47;3.90;99.90
20759;DHT22;10539;53.686;9.158;2023-04-06T06:07:14;3.90;99.90
20759;DHT22;10539;53.686;9.158;2023-04-06T06:09:39;4.00;99.90
20759;DHT22;10539;53.686;9.158;2023-04-06T06:12:06;4.00;99.90
20759;DHT22;10539;53.686;9.158;2023-04-06T06:14:32;4.00;99.90
20759;DHT22;10539;53.686;9.158;2023-04-06T06:16:57;4.00;99.90
20759;DHT22;10539;53.686;9.158;2023-04-06T06:19:23;4.10;99.90
20759;DHT22;10539;53.686;9.158;2023-04-06T06:21:49;4.10;99.90
20759;DHT22;10539;53.686;9.158;2023-04-06T06:24:15;4.30;99.90
20759;DHT22;10539;53.686;9.158;2023-04-06T06:26:41;4.40;99.90
20759;DHT22;10539;53.686;9.158;2023-04-06T06:29:07;4.50;99.90
20759;DHT22;10539;53.686;9.158;2023-04-06T06:31:33;4.50;99.90
20759;DHT22;10539;53.686;9.158;2023-04-06T06:33:59;4.60;99.90
20759;DHT22;10539;53.686;9.158;2023-04-06T06:36:25;4.60;99.90
20759;DHT22;10539;53.686;9.158;2023-04-06T06:38:51;4.70;99.90
20759;DHT22;10539;53.686;9.158;2023-04-06T06:41:17;4.90;99.90
20759;DHT22;10539;53.686;9.158;2023-04-06T06:43:43;5.80;99.90
20759;DHT22;10539;53.686;9.158;2023-04-06T06:46:09;6.70;99.90
20759;DHT22;10539;53.686;9.158;2023-04-06T06:48:35;7.40;99.90
20759;DHT22;10539;53.686;9.158;2023-04-06T06:51:01;7.70;99.90
20759;DHT22;10539;53.686;9.158;2023-04-06T06:53:26;8.10;99.90
20759;DHT22;10539;53.686;9.158;2023-04-06T06:55:52;8.50;99.90
20759;DHT22;10539;53.686;9.158;2023-04-06T06:58:19;8.80;99.90
20759;DHT22;10539;53.686;9.158;2023-04-06T07:00:45;9.20;99.90
20759;DHT22;10539;53.686;9.158;2023-04-06T07:03:12;9.80;99.90
20759;DHT22;10539;53.686;9.158;2023-04-06T07:05:38;10.10;99.90
20759;DHT22;10539;53.686;9.158;2023-04-06T07:08:04;10.00;99.90
20759;DHT22;10539;53.686;9.158;2023-04-06T07:10:30;9.80;99.90
20759;DHT22;10539;53.686;9.158;2023-04-06T07:12:56;9.70;99.90
20759;DHT22;10539;53.686;9.158;2023-04-06T07:15:22;9.70;99.90
20759;DHT22;10539;53.686;9.158;2023-04-06T07:17:48;9.70;99.90
20759;DHT22;10539;53.686;9.158;2023-04-06T07:20:14;9.70;99.90
20759;DHT22;10539;53.686;9.158;2023-04-06T07:22:41;9.90;99.90
20759;DHT22;10539;53.686;9.158;2023-04-06T07:25:08;10.20;99.90
20759;DHT22;10539;53.686;9.158;2023-04-06T07:27:33;10.30;99.90
20759;DHT22;10539;53.686;9.158;2023-04-06T07:29:59;10.30;99.90
20759;DHT22;10539;53.686;9.158;2023-04-06T07:32:25;10.20;99.90
20759;DHT22;10539;53.686;9.158;2023-04-06T07:34:51;10.10;99.90
20759;DHT22;10539;53.686;9.158;2023-04-06T07:37:17;10.20;99.90
20759;DHT22;10539;53.686;9.158;2023-04-06T07:39:43;10.50;99.90
20759;DHT22;10539;53.686;9.158;2023-04-06T07:42:09;10.90;99.90
20759;DHT22;10539;53.686;9.158;2023-04-06T07:44:35;10.80;99.90
20759;DHT22;10539;53.686;9.158;2023-04-06T07:47:01;10.40;99.90
20759;DHT22;10539;53.686;9.158;2023-04-06T07:49:27;9.70;99.90
20759;DHT22;10539;53.686;9.158;2023-04-06T07:51:53;9.30;99.90
20759;DHT22;10539;53.686;9.158;2023-04-06T07:54:19;9.00;99.90
20759;DHT22;10539;53.686;9.158;2023-04-06T07:56:45;8.80;99.90
20759;DHT22;10539;53.686;9.158;2023-04-06T07:59:11;8.70;99.90
20759;DHT22;10539;53.686;9.158;2023-04-06T08:01:37;8.50;99.90
20759;DHT22;10539;53.686;9.158;2023-04-06T08:04:03;8.40;99.90
20759;DHT22;10539;53.686;9.158;2023-04-06T08:06:29;8.40;99.90
20759;DHT22;10539;53.686;9.158;2023-04-06T08:08:55;8.40;99.90
20759;DHT22;10539;53.686;9.158;2023-04-06T08:11:21;8.50;99.90
20759;DHT22;10539;53.686;9.158;2023-04-06T08:13:47;8.60;99.90
20759;DHT22;10539;53.686;9.158;2023-04-06T08:16:13;8.70;99.90
20759;DHT22;10539;53.686;9.158;2023-04-06T08:18:38;8.70;99.90
20759;DHT22;10539;53.686;9.158;2023-04-06T08:21:04;8.70;99.90
20759;DHT22;10539;53.686;9.158;2023-04-06T08:23:30;8.70;99.90
20759;DHT22;10539;53.686;9.158;2023-04-06T08:25:56;8.80;99.90
20759;DHT22;10539;53.686;9.158;2023-04-06T08:28:22;8.80;99.90
20759;DHT22;10539;53.686;9.158;2023-04-06T08:30:48;8.90;99.90
20759;DHT22;10539;53.686;9.158;2023-04-06T08:33:14;8.90;99.90
20759;DHT22;10539;53.686;9.158;2023-04-06T08:35:39;9.00;99.90
20759;DHT22;10539;53.686;9.158;2023-04-06T08:38:05;9.00;99.90
20759;DHT22;10539;53.686;9.158;2023-04-06T08:40:39;9.00;99.90
20759;DHT22;10539;53.686;9.158;2023-04-06T08:43:08;9.20;99.90
20759;DHT22;10539;53.686;9.158;2023-04-06T08:45:35;9.30;99.90
20759;DHT22;10539;53.686;9.158;2023-04-06T08:48:03;9.40;99.90
20759;DHT22;10539;53.686;9.158;2023-04-06T08:50:30;9.50;99.90
20759;DHT22;10539;53.686;9.158;2023-04-06T08:52:57;9.50;99.90
20759;DHT22;10539;53.686;9.158;2023-04-06T08:55:24;9.50;99.90
20759;DHT22;10539;53.686;9.158;2023-04-06T08:57:50;9.60;99.90
20759;DHT22;10539;53.686;9.158;2023-04-06T09:00:20;9.60;99.90
20759;DHT22;10539;53.686;9.158;2023-04-06T09:02:49;9.60;99.90
20759;DHT22;10539;53.686;9.158;2023-04-06T09:05:15;9.70;99.90
20759;DHT22;10539;53.686;9.158;2023-04-06T09:07:41;9.90;99.90
20759;DHT22;10539;53.686;9.158;2023-04-06T09:10:08;10.10;99.90
20759;DHT22;10539;53.686;9.158;2023-04-06T09:12:34;10.10;99.90
20759;DHT22;10539;53.686;9.158;2023-04-06T09:15:01;10.20;99.90
20759;DHT22;10539;53.686;9.158;2023-04-06T09:17:29;10.20;99.90
20759;DHT22;10539;53.686;9.158;2023-04-06T09:19:56;10.30;99.90
20759;DHT22;10539;53.686;9.158;2023-04-06T09:22:23;10.30;99.90
20759;DHT22;10539;53.686;9.158;2023-04-06T09:24:54;10.40;99.90
20759;DHT22;10539;53.686;9.158;2023-04-06T09:27:32;10.40;99.90
20759;DHT22;10539;53.686;9.158;2023-04-06T09:32:32;10.60;99.90
20759;DHT22;10539;53.686;9.158;2023-04-06T09:35:08;10.70;99.90
20759;DHT22;10539;53.686;9.158;2023-04-06T09:37:34;10.70;99.90
20759;DHT22;10539;53.686;9.158;2023-04-06T09:40:04;10.70;99.90
20759;DHT22;10539;53.686;9.158;2023-04-06T09:42:30;10.80;99.90
20759;DHT22;10539;53.686;9.158;2023-04-06T09:44:56;10.90;99.90
20759;DHT22;10539;53.686;9.158;2023-04-06T09:47:22;11.00;99.90
20759;DHT22;10539;53.686;9.158;2023-04-06T09:49:50;11.10;99.90
20759;DHT22;10539;53.686;9.158;2023-04-06T09:52:22;11.10;99.90
20759;DHT22;10539;53.686;9.158;2023-04-06T09:54:50;11.10;99.90
20759;DHT22;10539;53.686;9.158;2023-04-06T09:57:22;11.10;99.90
20759;DHT22;10539;53.686;9.158;2023-04-06T09:59:58;11.20;99.90
20759;DHT22;10539;53.686;9.158;2023-04-06T10:03:02;11.20;99.90
20759;DHT22;10539;53.686;9.158;2023-04-06T10:05:33;11.30;99.90
20759;DHT22;10539;53.686;9.158;2023-04-06T10:08:03;11.40;99.90
20759;DHT22;10539;53.686;9.158;2023-04-06T10:10:31;11.40;99.90
20759;DHT22;10539;53.686;9.158;2023-04-06T10:12:58;11.40;99.90
20759;DHT22;10539;53.686;9.158;2023-04-06T10:15:24;11.50;99.90
20759;DHT22;10539;53.686;9.158;2023-04-06T10:17:51;11.40;99.90
20759;DHT22;10539;53.686;9.158;2023-04-06T10:23:44;11.40;99.90
20759;DHT22;10539;53.686;9.158;2023-04-06T10:26:15;11.50;99.90
20759;DHT22;10539;53.686;9.158;2023-04-06T10:28:43;11.60;99.90
20759;DHT22;10539;53.686;9.158;2023-04-06T10:31:09;11.60;99.90
20759;DHT22;10539;53.686;9.158;2023-04-06T10:33:35;11.60;99.90
20759;DHT22;10539;53.686;9.158;2023-04-06T10:36:15;11.70;99.90
20759;DHT22;10539;53.686;9.158;2023-04-06T10:38:46;11.80;99.90
20759;DHT22;10539;53.686;9.158;2023-04-06T10:41:12;11.90;99.90
20759;DHT22;10539;53.686;9.158;2023-04-06T10:43:40;12.00;99.70
20759;DHT22;10539;53.686;9.158;2023-04-06T10:46:07;12.00;99.10
20759;DHT22;10539;53.686;9.158;2023-04-06T10:48:44;12.00;99.10
20759;DHT22;10539;53.686;9.158;2023-04-06T10:51:12;12.00;99.60
20759;DHT22;10539;53.686;9.158;2023-04-06T10:53:41;12.20;99.90
20759;DHT22;10539;53.686;9.158;2023-04-06T10:56:10;12.30;99.80
20759;DHT22;10539;53.686;9.158;2023-04-06T10:58:37;12.40;99.00
20759;DHT22;10539;53.686;9.158;2023-04-06T11:01:03;12.40;99.60
20759;DHT22;10539;53.686;9.158;2023-04-06T11:03:29;12.40;99.00
20759;DHT22;10539;53.686;9.158;2023-04-06T11:05:55;12.40;99.30
20759;DHT22;10539;53.686;9.158;2023-04-06T11:08:32;12.50;99.90
20759;DHT22;10539;53.686;9.158;2023-04-06T11:11:07;12.70;99.90
20759;DHT22;10539;53.686;9.158;2023-04-06T11:13:44;12.80;99.30
20759;DHT22;10539;53.686;9.158;2023-04-06T11:16:18;12.70;98.00
20759;DHT22;10539;53.686;9.158;2023-04-06T11:18:52;12.70;97.50
20759;DHT22;10539;53.686;9.158;2023-04-06T11:21:20;12.60;98.10
20759;DHT22;10539;53.686;9.158;2023-04-06T11:23:46;12.60;98.50
20759;DHT22;10539;53.686;9.158;2023-04-06T11:26:13;12.70;98.30
20759;DHT22;10539;53.686;9.158;2023-04-06T11:28:41;12.80;99.20
20759;DHT22;10539;53.686;9.158;2023-04-06T11:31:09;12.90;99.10
20759;DHT22;10539;53.686;9.158;2023-04-06T11:33:39;13.00;98.50
20759;DHT22;10539;53.686;9.158;2023-04-06T11:36:05;13.10;99.50
20759;DHT22;10539;53.686;9.158;2023-04-06T11:38:32;13.20;99.10
20759;DHT22;10539;53.686;9.158;2023-04-06T11:40:58;13.20;98.60
20759;DHT22;10539;53.686;9.158;2023-04-06T11:43:30;13.30;98.10
20759;DHT22;10539;53.686;9.158;2023-04-06T11:46:00;13.30;98.50
20759;DHT22;10539;53.686;9.158;2023-04-06T11:48:28;13.30;98.70
20759;DHT22;10539;53.686;9.158;2023-04-06T11:50:58;13.30;97.60
20759;DHT22;10539;53.686;9.158;2023-04-06T11:53:27;13.30;98.30
20759;DHT22;10539;53.686;9.158;2023-04-06T11:55:53;13.40;98.80
20759;DHT22;10539;53.686;9.158;2023-04-06T11:58:19;13.40;97.00
20759;DHT22;10539;53.686;9.158;2023-04-06T12:00:45;13.50;97.60
20759;DHT22;10539;53.686;9.158;2023-04-06T12:03:11;13.50;97.40
20759;DHT22;10539;53.686;9.158;2023-04-06T12:05:38;13.50;98.00
20759;DHT22;10539;53.686;9.158;2023-04-06T12:08:04;13.50;98.60
20759;DHT22;10539;53.686;9.158;2023-04-06T12:10:30;13.50;96.80
20759;DHT22;10539;53.686;9.158;2023-04-06T12:12:56;13.50;97.30
20759;DHT22;10539;53.686;9.158;2023-04-06T12:15:22;13.50;97.70
20759;DHT22;10539;53.686;9.158;2023-04-06T12:17:48;13.50;97.30
20759;DHT22;10539;53.686;9.158;2023-04-06T12:20:15;13.60;97.80
20759;DHT22;10539;53.686;9.158;2023-04-06T12:22:41;13.60;98.20
20759;DHT22;10539;53.686;9.158;2023-04-06T12:25:07;13.70;98.60
20759;DHT22;10539;53.686;9.158;2023-04-06T12:27:33;13.70;98.00
20759;DHT22;10539;53.686;9.158;2023-04-06T12:29:59;13.70;97.20
20759;DHT22;10539;53.686;9.158;2023-04-06T12:32:24;13.70;96.60
20759;DHT22;10539;53.686;9.158;2023-04-06T12:34:54;13.70;97.20
20759;DHT22;10539;53.686;9.158;2023-04-06T12:37:19;13.70;96.70
20759;DHT22;10539;53.686;9.158;2023-04-06T12:39:46;13.70;96.40
20759;DHT22;10539;53.686;9.158;2023-04-06T12:42:12;13.70;96.30
20759;DHT22;10539;53.686;9.158;2023-04-06T12:44:39;13.70;97.50
20759;DHT22;10539;53.686;9.158;2023-04-06T12:47:05;13.80;98.00
20759;DHT22;10539;53.686;9.158;2023-04-06T12:49:32;13.80;96.40
20759;DHT22;10539;53.686;9.158;2023-04-06T12:51:58;13.80;96.40
20759;DHT22;10539;53.686;9.158;2023-04-06T12:54:24;13.70;95.20
20759;DHT22;10539;53.686;9.158;2023-04-06T12:56:52;13.60;94.80
20759;DHT22;10539;53.686;9.158;2023-04-06T12:59:18;13.60;95.70
20759;DHT22;10539;53.686;9.158;2023-04-06T13:01:43;13.60;95.10
20759;DHT22;10539;53.686;9.158;2023-04-06T13:04:10;13.60;96.00
20759;DHT22;10539;53.686;9.158;2023-04-06T13:06:35;13.60;95.90
20759;DHT22;10539;53.686;9.158;2023-04-06T13:09:01;13.60;95.90
20759;DHT22;10539;53.686;9.158;2023-04-06T13:11:27;13.60;96.40
20759;DHT22;10539;53.686;9.158;2023-04-06T13:13:54;13.70;96.40
20759;DHT22;10539;53.686;9.158;2023-04-06T13:16:20;13.70;96.10
20759;DHT22;10539;53.686;9.158;2023-04-06T13:18:46;13.70;94.80
20759;DHT22;10539;53.686;9.158;2023-04-06T13:21:14;13.70;95.40
20759;DHT22;10539;53.686;9.158;2023-04-06T13:23:42;13.70;96.20
20759;DHT22;10539;53.686;9.158;2023-04-06T13:26:08;13.70;95.60
20759;DHT22;10539;53.686;9.158;2023-04-06T13:28:35;13.70;95.50
20759;DHT22;10539;53.686;9.158;2023-04-06T13:31:02;13.70;95.60
20759;DHT22;10539;53.686;9.158;2023-04-06T13:33:29;13.70;95.70
20759;DHT22;10539;53.686;9.158;2023-04-06T13:35:57;13.70;96.00
20759;DHT22;10539;53.686;9.158;2023-04-06T13:38:22;13.70;95.60
20759;DHT22;10539;53.686;9.158;2023-04-06T13:40:52;13.70;95.50
20759;DHT22;10539;53.686;9.158;2023-04-06T13:43:18;13.70;95.00
20759;DHT22;10539;53.686;9.158;2023-04-06T13:45:53;13.70;95.60
20759;DHT22;10539;53.686;9.158;2023-04-06T13:48:20;13.80;95.40
20759;DHT22;10539;53.686;9.158;2023-04-06T13:50:46;13.80;95.20
20759;DHT22;10539;53.686;9.158;2023-04-06T13:53:12;13.80;95.00
20759;DHT22;10539;53.686;9.158;2023-04-06T13:55:38;13.80;95.60
20759;DHT22;10539;53.686;9.158;2023-04-06T13:58:04;13.80;95.50
20759;DHT22;10539;53.686;9.158;2023-04-06T14:00:30;13.80;95.40
20759;DHT22;10539;53.686;9.158;2023-04-06T14:02:56;13.80;95.40
20759;DHT22;10539;53.686;9.158;2023-04-06T14:05:22;13.80;95.20
20759;DHT22;10539;53.686;9.158;2023-04-06T14:07:49;13.80;95.20
20759;DHT22;10539;53.686;9.158;2023-04-06T14:10:15;13.90;94.70
20759;DHT22;10539;53.686;9.158;2023-04-06T14:12:42;13.80;93.60
20759;DHT22;10539;53.686;9.158;2023-04-06T14:15:11;13.80;93.20
20759;DHT22;10539;53.686;9.158;2023-04-06T14:17:37;13.80;94.00
20759;DHT22;10539;53.686;9.158;2023-04-06T14:20:07;13.90;94.40
20759;DHT22;10539;53.686;9.158;2023-04-06T14:22:33;13.90;95.00
20759;DHT22;10539;53.686;9.158;2023-04-06T14:24:58;13.90;93.60
20759;DHT22;10539;53.686;9.158;2023-04-06T14:27:25;13.90;93.30
20759;DHT22;10539;53.686;9.158;2023-04-06T14:29:51;13.90;93.30
20759;DHT22;10539;53.686;9.158;2023-04-06T14:32:19;13.90;93.40
20759;DHT22;10539;53.686;9.158;2023-04-06T14:34:46;13.90;93.70
20759;DHT22;10539;53.686;9.158;2023-04-06T14:37:11;13.90;93.20
20759;DHT22;10539;53.686;9.158;2023-04-06T14:39:37;13.80;93.60
20759;DHT22;10539;53.686;9.158;2023-04-06T14:42:03;13.80;93.30
20759;DHT22;10539;53.686;9.158;2023-04-06T14:44:29;13.80;93.00
20759;DHT22;10539;53.686;9.158;2023-04-06T14:46:54;13.80;92.80
20759;DHT22;10539;53.686;9.158;2023-04-06T14:49:21;13.80;92.60
20759;DHT22;10539;53.686;9.158;2023-04-06T14:51:46;13.80;92.80
20759;DHT22;10539;53.686;9.158;2023-04-06T14:54:12;13.90;92.90
20759;DHT22;10539;53.686;9.158;2023-04-06T14:56:38;13.90;92.50
20759;DHT22;10539;53.686;9.158;2023-04-06T14:59:04;13.80;92.10
20759;DHT22;10539;53.686;9.158;2023-04-06T15:01:34;13.80;92.30
20759;DHT22;10539;53.686;9.158;2023-04-06T15:04:02;13.80;92.80
20759;DHT22;10539;53.686;9.158;2023-04-06T15:06:29;13.80;92.90
20759;DHT22;10539;53.686;9.158;2023-04-06T15:08:55;13.80;92.60
20759;DHT22;10539;53.686;9.158;2023-04-06T15:11:21;13.80;93.20
20759;DHT22;10539;53.686;9.158;2023-04-06T15:13:47;13.90;92.90
20759;DHT22;10539;53.686;9.158;2023-04-06T15:16:13;13.80;92.60
20759;DHT22;10539;53.686;9.158;2023-04-06T15:18:40;13.80;92.60
20759;DHT22;10539;53.686;9.158;2023-04-06T15:21:05;13.80;93.10
20759;DHT22;10539;53.686;9.158;2023-04-06T15:23:33;13.80;92.00
20759;DHT22;10539;53.686;9.158;2023-04-06T15:26:00;13.70;91.70
20759;DHT22;10539;53.686;9.158;2023-04-06T15:28:27;13.70;92.00
20759;DHT22;10539;53.686;9.158;2023-04-06T15:30:54;13.80;92.50
20759;DHT22;10539;53.686;9.158;2023-04-06T15:33:20;13.80;92.30
20759;DHT22;10539;53.686;9.158;2023-04-06T15:35:47;13.80;92.80
20759;DHT22;10539;53.686;9.158;2023-04-06T15:38:13;13.80;92.80
20759;DHT22;10539;53.686;9.158;2023-04-06T15:40:43;13.80;92.60
20759;DHT22;10539;53.686;9.158;2023-04-06T15:43:10;13.80;93.00